Time;durP1;ratioP1;P1;durP2;ratioP2;P2;SDS_P1;SDS_P2;PMS_P1;PMS_P2;Temp;Humidity;BMP_temperature;BMP_pressure;BME280_temperature;BME280_humidity;BME280_pressure;Samples;Min_cycle;Max_cycle;Signal;HPM_P1;HPM_P2
2023/08/30 00:00:31;;;;;;;11.40;10.30;;;;;;;15.15;88.65;96120.50;6214684;23;20087;-78
2023/08/30 00:02:59;;;;;;;12.18;10.98;;;;;;;15.14;88.72;96113.63;6214377;23;20028;-78
2023/08/30 00:05:28;;;;;;;11.30;10.27;;;;;;;15.11;86.61;96114.09;6214693;23;20025;-76
2023/08/30 00:07:56;;;;;;;11.32;10.32;;;;;;;15.07;86.44;96114.75;6214177;23;20017;-78
2023/08/30 00:10:23;;;;;;;11.52;10.27;;;;;;;15.07;87.57;96105.03;6220757;23;20048;-78
2023/08/30 00:12:52;;;;;;;11.82;10.65;;;;;;;15.06;87.27;96107.88;6220499;23;20421;-78
2023/08/30 00:15:20;;;;;;;10.20;9.30;;;;;;;15.04;86.23;96103.66;6221081;23;20051;-78
2023/08/30 00:17:48;;;;;;;11.13;10.13;;;;;;;15.04;87.14;96102.84;6218605;23;20489;-79
2023/08/30 00:20:16;;;;;;;10.68;9.68;;;;;;;15.04;86.65;96097.59;6215647;23;20350;-77
2023/08/30 00:22:43;;;;;;;12.10;10.23;;;;;;;15.06;86.00;96100.78;6213915;23;20024;-78
2023/08/30 00:25:11;;;;;;;11.27;10.27;;;;;;;15.07;86.25;96101.63;6214403;23;20458;-78
2023/08/30 00:27:38;;;;;;;14.15;11.07;;;;;;;15.06;88.43;96106.06;6213439;23;20044;-78
2023/08/30 00:30:09;;;;;;;11.95;10.85;;;;;;;15.07;88.43;96105.03;6214733;23;20346;-78
2023/08/30 00:32:37;;;;;;;11.50;10.50;;;;;;;15.04;89.17;96108.09;6214192;23;20025;-78
2023/08/30 00:35:05;;;;;;;12.70;11.45;;;;;;;15.03;87.94;96101.25;6214561;23;20021;-78
2023/08/30 00:37:33;;;;;;;11.35;10.10;;;;;;;15.01;87.58;96098.84;6214513;23;20017;-78
2023/08/30 00:40:00;;;;;;;10.70;9.70;;;;;;;15.01;88.09;96095.41;6214504;23;20044;-78
2023/08/30 00:42:28;;;;;;;11.88;10.65;;;;;;;15.03;88.13;96096.00;6213697;23;20028;-77
2023/08/30 00:44:56;;;;;;;12.07;10.88;;;;;;;15.03;88.19;96102.03;6214465;23;20021;-78
2023/08/30 00:47:25;;;;;;;12.20;11.00;;;;;;;15.02;88.11;96099.63;6213780;23;20021;-78
2023/08/30 00:49:53;;;;;;;11.02;10.02;;;;;;;14.97;86.03;96102.94;6214295;23;20021;-78
2023/08/30 00:52:20;;;;;;;12.38;11.20;;;;;;;14.98;87.52;96103.75;6214238;23;20024;-78
2023/08/30 00:54:48;;;;;;;11.85;10.75;;;;;;;15.00;89.32;96102.50;6216376;23;20032;-78
2023/08/30 00:57:17;;;;;;;11.77;10.75;;;;;;;15.03;89.63;96106.50;6216021;23;20051;-78
2023/08/30 00:59:44;;;;;;;12.38;11.18;;;;;;;15.02;90.36;96095.22;6216058;23;20458;-77
2023/08/30 01:02:13;;;;;;;12.35;11.23;;;;;;;15.05;91.46;96101.84;6227785;23;20017;-78
2023/08/30 01:04:42;;;;;;;11.25;10.20;;;;;;;15.03;89.22;96096.00;6218709;23;20038;-77
2023/08/30 01:07:09;;;;;;;11.98;10.77;;;;;;;15.02;89.31;96094.38;6215693;23;20047;-78
2023/08/30 01:09:37;;;;;;;11.65;10.55;;;;;;;15.04;89.13;96102.84;6215730;23;20096;-78
2023/08/30 01:12:11;;;;;;;12.70;11.40;;;;;;;15.03;89.45;96101.25;6215924;23;20087;-78
2023/08/30 01:14:44;;;;;;;12.35;11.15;;;;;;;14.99;86.91;96100.09;6215851;23;20024;-78
2023/08/30 01:17:17;;;;;;;11.68;10.57;;;;;;;14.92;85.68;96089.66;6216490;23;20036;-78
2023/08/30 01:19:52;;;;;;;11.80;10.80;;;;;;;14.88;85.07;96091.13;6216377;23;20023;-78
2023/08/30 01:22:29;;;;;;;12.90;11.70;;;;;;;14.88;86.60;96099.00;6215614;23;20078;-78
2023/08/30 01:25:08;;;;;;;14.13;10.85;;;;;;;14.82;84.59;96092.84;6216122;23;20095;-78
2023/08/30 01:27:38;;;;;;;12.68;11.48;;;;;;;14.77;85.18;96086.63;6215626;23;20024;-78
2023/08/30 01:30:08;;;;;;;12.50;11.30;;;;;;;14.75;86.33;96091.28;6215922;23;20075;-78
2023/08/30 01:32:38;;;;;;;13.07;11.88;;;;;;;14.73;85.55;96083.63;6227839;23;20025;-78
2023/08/30 01:35:08;;;;;;;12.82;11.43;;;;;;;14.71;84.57;96077.78;6216891;23;20463;-77
2023/08/30 01:37:37;;;;;;;11.48;10.38;;;;;;;14.70;84.72;96081.47;6215954;23;20047;-78
2023/08/30 01:40:08;;;;;;;12.00;10.80;;;;;;;14.67;83.96;96083.72;6215796;23;20021;-78
2023/08/30 01:42:37;;;;;;;11.90;10.80;;;;;;;14.63;83.76;96080.75;6215769;23;20028;-78
2023/08/30 01:45:08;;;;;;;11.90;10.80;;;;;;;14.64;85.50;96082.34;6215742;23;20086;-77
2023/08/30 01:47:36;;;;;;;13.20;11.90;;;;;;;14.65;86.72;96081.31;6215410;23;20070;-77
2023/08/30 01:50:05;;;;;;;12.82;11.52;;;;;;;14.65;86.14;96078.69;6215755;23;20044;-78
2023/08/30 01:52:33;;;;;;;12.50;11.32;;;;;;;14.68;87.64;96075.63;6214996;23;20733;-77
2023/08/30 01:55:03;;;;;;;13.73;12.32;;;;;;;14.68;87.21;96075.63;6215672;23;20032;-77
2023/08/30 01:57:30;;;;;;;13.13;11.82;;;;;;;14.67;86.27;96076.66;6215263;23;20087;-78
2023/08/30 01:59:59;;;;;;;13.07;11.88;;;;;;;14.63;85.47;96078.13;6215181;23;20513;-77
2023/08/30 02:02:29;;;;;;;12.68;11.48;;;;;;;14.61;85.09;96082.78;6214996;23;20524;-78
2023/08/30 02:04:57;;;;;;;14.63;11.20;;;;;;;14.59;84.84;96082.19;6215550;23;20028;-77
2023/08/30 02:07:33;;;;;;;13.70;12.48;;;;;;;14.56;84.37;96082.63;6215671;23;20027;-78
2023/08/30 02:10:03;;;;;;;13.40;12.02;;;;;;;14.51;84.18;96083.25;6215291;23;20472;-78
2023/08/30 02:12:40;;;;;;;15.95;13.38;;;;;;;14.52;88.51;96084.88;6215171;23;20024;-78
2023/08/30 02:15:12;;;;;;;12.55;11.32;;;;;;;14.48;86.14;96080.28;6215771;23;20079;-78
2023/08/30 02:17:40;;;;;;;11.90;10.77;;;;;;;14.42;85.07;96081.94;6215897;23;20051;-78
2023/08/30 02:20:08;;;;;;;13.32;10.93;;;;;;;14.39;85.63;96087.63;6225826;23;20072;-80
2023/08/30 02:22:36;;;;;;;15.25;12.00;;;;;;;14.37;85.76;96085.22;6227032;23;20017;-80
2023/08/30 02:25:04;;;;;;;17.25;11.07;;;;;;;14.36;85.38;96086.22;6221818;23;20024;-80
2023/08/30 02:27:32;;;;;;;12.88;11.65;;;;;;;14.34;85.51;96085.66;6214337;23;20024;-80
2023/08/30 02:30:03;;;;;;;12.50;11.30;;;;;;;14.35;86.08;96084.63;6213109;23;20017;-80
2023/08/30 02:32:32;;;;;;;12.43;11.23;;;;;;;14.37;86.58;96087.84;6213352;23;20470;-80
2023/08/30 02:34:59;;;;;;;12.55;11.30;;;;;;;14.36;86.06;96088.84;6215404;23;20028;-80
2023/08/30 02:37:27;;;;;;;12.63;10.73;;;;;;;14.37;85.83;96087.06;6215336;23;20086;-79
2023/08/30 02:39:55;;;;;;;12.13;10.90;;;;;;;14.35;85.31;96086.47;6216393;23;20048;-79
2023/08/30 02:42:22;;;;;;;12.15;10.95;;;;;;;14.33;85.16;96083.25;6216058;23;20062;-80
2023/08/30 02:44:50;;;;;;;11.82;10.43;;;;;;;14.32;85.21;96085.09;6215232;23;20020;-79
2023/08/30 02:47:17;;;;;;;12.48;11.18;;;;;;;14.30;85.26;96081.88;6215313;23;20025;-78
2023/08/30 02:49:46;;;;;;;12.60;11.30;;;;;;;14.29;85.28;96084.72;6216167;23;20020;-80
2023/08/30 02:52:14;;;;;;;11.52;10.32;;;;;;;14.29;85.53;96079.47;6215771;23;20024;-80
2023/08/30 02:54:41;;;;;;;11.88;10.50;;;;;;;14.29;85.65;96085.50;6215808;23;20066;-80
2023/08/30 02:57:09;;;;;;;11.27;10.15;;;;;;;14.34;86.89;96085.66;6214941;23;20470;-80
2023/08/30 02:59:37;;;;;;;12.02;10.80;;;;;;;14.36;86.15;96080.97;6215063;23;20016;-80
2023/08/30 03:02:04;;;;;;;11.75;10.65;;;;;;;14.37;85.67;96090.47;6214910;23;20028;-80
2023/08/30 03:04:32;;;;;;;12.77;11.30;;;;;;;14.37;85.38;96073.94;6214857;23;20035;-79
2023/08/30 03:07:01;;;;;;;12.23;11.02;;;;;;;14.35;85.31;96074.16;6215182;23;20020;-80
2023/08/30 03:09:29;;;;;;;12.07;10.80;;;;;;;14.35;85.04;96068.91;6214820;23;20027;-79
2023/08/30 03:11:56;;;;;;;11.95;10.75;;;;;;;14.34;84.76;96066.47;6214825;23;20409;-80
2023/08/30 03:14:24;;;;;;;11.60;10.48;;;;;;;14.33;85.04;96070.13;6214112;23;20071;-79
2023/08/30 03:16:52;;;;;;;12.52;11.32;;;;;;;14.34;85.80;96071.72;6214287;23;20417;-77
2023/08/30 03:19:19;;;;;;;11.57;10.48;;;;;;;14.38;87.56;96076.31;6214729;23;20067;-80
2023/08/30 03:21:47;;;;;;;11.95;10.85;;;;;;;14.42;88.34;96077.50;6214331;23;20020;-79
2023/08/30 03:24:17;;;;;;;12.43;11.23;;;;;;;14.47;89.29;96073.41;6214401;23;20020;-80
2023/08/30 03:26:45;;;;;;;12.18;11.07;;;;;;;14.49;89.13;96068.75;6214707;23;20032;-79
2023/08/30 03:29:12;;;;;;;12.27;11.07;;;;;;;14.50;88.62;96065.13;6214712;23;20083;-79
2023/08/30 03:31:40;;;;;;;12.27;11.07;;;;;;;14.52;88.35;96060.44;6215026;23;20024;-79
2023/08/30 03:34:07;;;;;;;12.75;11.05;;;;;;;14.47;87.08;96065.53;6214441;23;20060;-80
2023/08/30 03:36:35;;;;;;;15.90;11.68;;;;;;;14.40;86.24;96066.41;6214450;23;20027;-80
2023/08/30 03:39:03;;;;;;;12.95;11.63;;;;;;;14.37;87.96;96069.47;6214249;23;20021;-80
2023/08/30 03:41:32;;;;;;;12.30;11.02;;;;;;;14.40;88.92;96074.28;6214116;23;20020;-79
2023/08/30 03:43:59;;;;;;;11.65;10.27;;;;;;;14.42;89.38;96069.63;6213890;23;20024;-80
2023/08/30 03:46:27;;;;;;;12.45;10.93;;;;;;;14.45;89.54;96078.88;6214404;23;20090;-79
2023/08/30 03:48:56;;;;;;;13.52;11.77;;;;;;;14.45;88.60;96075.44;6214076;23;20047;-79
2023/08/30 03:51:24;;;;;;;12.75;11.48;;;;;;;14.41;87.33;96075.91;6214366;23;20021;-79
2023/08/30 03:53:51;;;;;;;13.00;11.63;;;;;;;14.39;87.73;96072.69;6213853;23;20024;-79
2023/08/30 03:56:19;;;;;;;13.00;11.63;;;;;;;14.35;86.63;96073.34;6214248;23;20021;-79
2023/08/30 03:58:48;;;;;;;12.48;11.15;;;;;;;14.30;85.82;96074.00;6214545;23;20021;-79
2023/08/30 04:01:16;;;;;;;11.77;10.57;;;;;;;14.25;85.87;96079.09;6214159;23;20028;-79
2023/08/30 04:03:44;;;;;;;11.88;10.77;;;;;;;14.21;85.37;96083.97;6214270;23;20059;-79
2023/08/30 04:06:11;;;;;;;11.13;10.10;;;;;;;14.18;85.79;96084.41;6214105;23;20517;-80
2023/08/30 04:08:39;;;;;;;11.65;10.13;;;;;;;14.16;85.70;96085.63;6214641;23;20027;-79
2023/08/30 04:11:07;;;;;;;10.80;9.82;;;;;;;14.11;85.02;96088.91;6214239;23;20028;-79
2023/08/30 04:13:35;;;;;;;10.68;9.60;;;;;;;14.06;85.19;96090.56;6214254;23;20023;-79
2023/08/30 04:16:04;;;;;;;11.43;9.88;;;;;;;14.02;85.33;96090.22;6214065;23;20032;-80
2023/08/30 04:18:32;;;;;;;10.40;9.45;;;;;;;13.99;85.55;96091.44;6213937;23;20561;-79
2023/08/30 04:21:01;;;;;;;10.07;9.15;;;;;;;14.01;86.68;96080.72;6214295;23;20024;-79
2023/08/30 04:23:29;;;;;;;11.80;10.48;;;;;;;14.01;85.77;96078.94;6213917;23;20095;-80
2023/08/30 04:25:57;;;;;;;14.15;10.77;;;;;;;14.02;85.57;96080.53;6223000;23;20025;-80
2023/08/30 04:28:26;;;;;;;10.80;9.80;;;;;;;14.00;85.21;96077.31;6219880;23;20038;-79
2023/08/30 04:30:54;;;;;;;18.10;11.65;;;;;;;13.99;85.53;96075.72;6215730;23;20013;-79
2023/08/30 04:33:24;;;;;;;13.25;10.73;;;;;;;13.99;85.39;96080.97;6215965;23;20024;-80
2023/08/30 04:35:52;;;;;;;13.30;11.23;;;;;;;13.98;85.08;96079.34;6215871;23;20060;-79
2023/08/30 04:38:19;;;;;;;11.18;9.90;;;;;;;13.98;85.50;96079.34;6216002;23;20516;-80
2023/08/30 04:40:47;;;;;;;10.40;9.40;;;;;;;14.03;86.75;96076.06;6216510;23;20055;-79
2023/08/30 04:43:17;;;;;;;10.75;9.35;;;;;;;14.08;86.63;96078.03;6215742;23;20071;-80
2023/08/30 04:45:48;;;;;;;11.18;10.07;;;;;;;14.16;89.54;96075.94;6215991;23;20083;-78
2023/08/30 04:48:16;;;;;;;13.45;10.10;;;;;;;14.18;87.80;96078.34;6215852;23;20017;-79
2023/08/30 04:50:45;;;;;;;10.23;9.10;;;;;;;14.19;87.99;96064.22;6215914;23;20027;-79
2023/08/30 04:53:12;;;;;;;11.55;10.18;;;;;;;14.24;88.18;96069.63;6215864;23;20075;-80
2023/08/30 04:55:40;;;;;;;10.80;9.68;;;;;;;14.25;86.20;96068.59;6216586;23;20025;-80
2023/08/30 04:58:07;;;;;;;13.15;10.35;;;;;;;14.18;84.52;96073.09;6216095;23;20027;-79
2023/08/30 05:00:36;;;;;;;9.88;8.88;;;;;;;14.14;84.56;96066.69;6216053;23;20020;-80
2023/08/30 05:03:04;;;;;;;10.73;9.30;;;;;;;14.11;84.43;96082.88;6224928;23;20103;-80
2023/08/30 05:05:31;;;;;;;13.40;10.25;;;;;;;14.09;83.73;96077.03;6227434;23;20023;-79
2023/08/30 05:08:00;;;;;;;10.88;9.73;;;;;;;14.07;83.60;96076.44;6218214;23;20540;-80
2023/08/30 05:10:28;;;;;;;10.05;9.02;;;;;;;14.06;83.89;96080.91;6216190;23;20093;-79
2023/08/30 05:12:56;;;;;;;10.60;9.38;;;;;;;14.06;83.90;96077.44;6216005;23;20025;-80
2023/08/30 05:15:23;;;;;;;10.52;9.52;;;;;;;14.04;84.14;96076.88;6216123;23;20051;-79
2023/08/30 05:17:51;;;;;;;11.65;10.50;;;;;;;14.02;83.79;96074.47;6215741;23;20031;-80
2023/08/30 05:20:19;;;;;;;11.27;9.60;;;;;;;14.00;83.69;96071.28;6215941;23;20099;-80
2023/08/30 05:22:46;;;;;;;11.65;10.48;;;;;;;14.00;84.82;96069.44;6215271;23;20028;-79
2023/08/30 05:25:15;;;;;;;10.75;9.77;;;;;;;14.01;84.23;96073.69;6216465;23;20028;-80
2023/08/30 05:27:43;;;;;;;12.60;10.18;;;;;;;13.96;83.49;96070.88;6216830;23;20021;-80
2023/08/30 05:30:12;;;;;;;10.65;9.38;;;;;;;13.97;86.05;96076.94;6215398;23;20023;-79
2023/08/30 05:32:40;;;;;;;12.38;10.75;;;;;;;14.00;86.06;96066.81;6213234;23;20029;-79
2023/08/30 05:35:08;;;;;;;10.98;9.20;;;;;;;14.05;86.33;96068.78;6215650;23;20021;-79
2023/08/30 05:37:36;;;;;;;11.20;10.10;;;;;;;14.11;86.13;96067.13;6214933;23;20032;-78
2023/08/30 05:40:05;;;;;;;11.88;10.60;;;;;;;14.16;85.68;96075.16;6215000;23;20041;-79
2023/08/30 05:42:34;;;;;;;10.93;9.80;;;;;;;14.21;87.51;96083.16;6215298;23;20021;-79
2023/08/30 05:45:03;;;;;;;10.55;9.55;;;;;;;14.29;88.79;96071.59;6215759;23;20023;-78
2023/08/30 05:47:31;;;;;;;11.75;10.52;;;;;;;14.35;88.44;96066.28;6215211;23;20071;-78
2023/08/30 05:49:59;;;;;;;11.00;9.82;;;;;;;14.36;87.36;96069.69;6215065;23;20095;-79
2023/08/30 05:52:27;;;;;;;11.57;10.07;;;;;;;14.35;87.24;96066.28;6214979;23;20336;-78
2023/08/30 05:54:54;;;;;;;10.80;9.80;;;;;;;14.40;88.36;96071.66;6215436;23;20028;-78
2023/08/30 05:57:23;;;;;;;11.98;10.90;;;;;;;14.45;89.78;96072.81;6218713;23;20029;-78
2023/08/30 05:59:52;;;;;;;11.63;10.50;;;;;;;14.48;89.66;96078.44;6215321;23;20021;-79
2023/08/30 06:02:20;;;;;;;12.27;11.15;;;;;;;14.51;89.62;96074.59;6214946;23;20078;-79
2023/08/30 06:04:47;;;;;;;13.15;9.95;;;;;;;14.54;89.04;96076.75;6214991;23;20078;-80
2023/08/30 06:07:15;;;;;;;12.30;10.98;;;;;;;14.59;90.28;96074.31;6219044;22;20025;-79
2023/08/30 06:09:43;;;;;;;12.55;11.07;;;;;;;14.67;90.88;96075.84;6215400;23;20024;-78
2023/08/30 06:12:10;;;;;;;11.15;9.80;;;;;;;14.66;90.59;96064.53;6214467;23;20527;-80
2023/08/30 06:14:38;;;;;;;10.48;9.48;;;;;;;14.66;89.65;96075.03;6215060;23;20028;-79
2023/08/30 06:17:07;;;;;;;10.07;9.18;;;;;;;14.62;87.26;96076.50;6212977;23;20028;-79
2023/08/30 06:19:35;;;;;;;10.98;9.98;;;;;;;14.65;88.62;96080.50;6211086;23;20219;-79
2023/08/30 06:22:03;;;;;;;10.18;8.13;;;;;;;14.66;86.76;96079.50;6212544;23;20021;-79
2023/08/30 06:24:30;;;;;;;10.45;8.60;;;;;;;14.69;87.36;96079.84;6214293;23;20705;-79
2023/08/30 06:26:59;;;;;;;11.10;10.00;;;;;;;14.74;89.07;96077.38;6214735;23;20458;-79
2023/08/30 06:29:27;;;;;;;9.15;8.25;;;;;;;14.79;87.70;96079.34;6213973;23;20025;-79
2023/08/30 06:31:54;;;;;;;8.63;7.68;;;;;;;14.78;85.57;96078.53;6217559;23;20398;-80
2023/08/30 06:34:23;;;;;;;8.95;7.80;;;;;;;14.83;84.38;96089.16;6224995;23;20020;-79
2023/08/30 06:36:51;;;;;;;9.55;8.23;;;;;;;14.88;85.69;96085.88;6214799;23;20032;-79
2023/08/30 06:39:19;;;;;;;8.88;7.97;;;;;;;14.92;85.33;96083.63;6215122;23;20021;-79
2023/08/30 06:41:46;;;;;;;9.48;8.48;;;;;;;14.98;86.78;96085.38;6214339;23;20461;-79
2023/08/30 06:44:14;;;;;;;8.43;7.60;;;;;;;15.03;85.42;96090.75;6214712;23;20024;-79
2023/08/30 06:46:41;;;;;;;10.30;8.68;;;;;;;15.04;86.17;96087.09;6214953;23;20401;-79
2023/08/30 06:49:09;;;;;;;8.30;6.75;;;;;;;15.10;84.70;96090.66;6214797;23;20402;-79
2023/08/30 06:51:38;;;;;;;6.90;6.22;;;;;;;15.13;82.93;96091.03;6214394;23;20346;-79
2023/08/30 06:54:06;;;;;;;16.42;7.65;;;;;;;15.19;82.57;96094.56;6214780;23;20086;-79
2023/08/30 06:56:34;;;;;;;7.35;6.68;;;;;;;15.19;82.99;96092.75;6214791;23;20401;-79
2023/08/30 06:59:02;;;;;;;8.55;7.68;;;;;;;15.24;84.49;96092.88;6214351;23;20021;-79
2023/08/30 07:01:29;;;;;;;7.70;6.90;;;;;;;15.25;83.02;96091.84;6214529;23;20395;-79
2023/08/30 07:03:57;;;;;;;6.97;6.20;;;;;;;15.26;81.68;96090.03;6216666;23;20025;-80
2023/08/30 07:06:29;;;;;;;8.13;6.38;;;;;;;15.27;80.79;96085.59;6218326;23;20096;-80
2023/08/30 07:08:58;;;;;;;6.95;6.05;;;;;;;15.28;80.23;96089.81;6217777;23;20025;-79
2023/08/30 07:11:26;;;;;;;7.18;6.28;;;;;;;15.32;80.94;96078.63;6215454;23;20025;-80
2023/08/30 07:14:01;;;;;;;7.68;5.82;;;;;;;15.39;81.17;96081.97;6214857;23;20020;-80
2023/08/30 07:16:28;;;;;;;8.90;6.72;;;;;;;15.45;81.00;96090.78;6214199;23;20016;-80
2023/08/30 07:18:56;;;;;;;6.72;6.03;;;;;;;15.54;82.50;96086.00;6214510;23;20075;-80
2023/08/30 07:21:25;;;;;;;9.13;7.20;;;;;;;15.64;84.22;96087.03;6215573;23;20095;-79
2023/08/30 07:23:53;;;;;;;6.47;5.80;;;;;;;15.70;81.94;96084.53;6218258;23;20028;-80
2023/08/30 07:26:22;;;;;;;8.55;6.05;;;;;;;15.72;80.60;96077.25;6216044;23;20418;-78
2023/08/30 07:28:50;;;;;;;6.78;6.05;;;;;;;15.76;81.40;96070.50;6215558;23;20025;-80
2023/08/30 07:31:18;;;;;;;5.95;5.35;;;;;;;15.83;79.82;96076.44;6214557;23;20017;-79
2023/08/30 07:33:46;;;;;;;5.95;5.45;;;;;;;15.91;78.67;96075.34;6214067;23;20060;-78
2023/08/30 07:36:13;;;;;;;6.22;5.72;;;;;;;16.00;81.17;96074.75;6214483;23;20032;-79
2023/08/30 07:38:43;;;;;;;5.85;5.25;;;;;;;16.13;81.43;96075.56;6214617;23;20028;-79
2023/08/30 07:41:11;;;;;;;5.80;5.30;;;;;;;16.22;80.95;96079.44;6214601;23;20366;-79
2023/08/30 07:43:40;;;;;;;8.80;5.25;;;;;;;16.32;79.52;96077.03;6217358;23;20023;-80
2023/08/30 07:46:08;;;;;;;5.72;4.35;;;;;;;16.43;78.27;96073.59;6229740;23;20024;-79
2023/08/30 07:48:36;;;;;;;5.55;5.05;;;;;;;16.55;79.30;96072.75;6224631;23;20081;-80
2023/08/30 07:51:04;;;;;;;6.60;6.00;;;;;;;16.67;80.76;96079.59;6215802;23;20045;-80
2023/08/30 07:53:31;;;;;;;6.90;6.07;;;;;;;16.75;79.39;96077.63;6215343;23;20024;-80
2023/08/30 07:55:59;;;;;;;5.57;5.10;;;;;;;16.76;77.40;96074.78;6215174;23;20075;-78
2023/08/30 07:58:27;;;;;;;5.60;5.10;;;;;;;16.80;77.75;96075.16;6214166;23;20032;-79
2023/08/30 08:00:56;;;;;;;7.72;5.82;;;;;;;16.85;77.75;96075.22;6215503;23;20025;-79
2023/08/30 08:03:23;;;;;;;5.75;5.22;;;;;;;16.88;77.97;96072.94;6214976;23;20351;-80
2023/08/30 08:05:51;;;;;;;6.10;5.50;;;;;;;16.91;75.35;96076.16;6215338;23;20539;-80
2023/08/30 08:08:19;;;;;;;5.20;4.75;;;;;;;16.96;75.82;96070.97;6215943;23;20377;-80
2023/08/30 08:10:47;;;;;;;6.57;5.20;;;;;;;17.01;75.09;96068.41;6215049;23;20024;-80
2023/08/30 08:13:15;;;;;;;6.90;5.90;;;;;;;17.04;74.62;96070.59;6214087;23;20016;-80
2023/08/30 08:15:43;;;;;;;5.72;5.20;;;;;;;17.11;75.79;96073.88;6213945;23;20024;-80
2023/08/30 08:18:12;;;;;;;5.50;4.97;;;;;;;17.19;75.48;96070.88;6215531;23;20029;-79
2023/08/30 08:20:40;;;;;;;5.55;4.43;;;;;;;17.24;73.25;96076.22;6215791;23;20027;-79
2023/08/30 08:23:08;;;;;;;6.03;5.43;;;;;;;17.28;73.44;96073.94;6215395;23;20083;-79
2023/08/30 08:25:36;;;;;;;6.07;5.57;;;;;;;17.30;75.50;96069.22;6215442;23;20043;-79
2023/08/30 08:28:04;;;;;;;7.07;6.47;;;;;;;17.33;75.21;96065.31;6216326;23;20021;-80
2023/08/30 08:30:36;;;;;;;6.20;5.43;;;;;;;17.36;72.95;96070.09;6216680;23;20027;-80
2023/08/30 08:33:04;;;;;;;6.22;5.72;;;;;;;17.41;75.14;96070.19;6215453;23;20355;-79
2023/08/30 08:35:33;;;;;;;6.22;5.68;;;;;;;17.47;73.91;96063.94;6215293;23;20043;-77
2023/08/30 08:38:01;;;;;;;6.38;5.88;;;;;;;17.58;74.08;96063.09;6215698;23;20075;-78
2023/08/30 08:40:29;;;;;;;6.63;5.93;;;;;;;17.69;73.96;96070.13;6229099;23;20079;-77
2023/08/30 08:43:11;;;;;;;14.40;9.00;;;;;;;17.79;71.74;96060.78;6214509;23;20072;-77
2023/08/30 08:45:39;;;;;;;7.05;5.93;;;;;;;17.83;70.29;96060.09;6214525;23;20079;-77
2023/08/30 08:48:08;;;;;;;8.30;6.47;;;;;;;17.92;73.34;96063.13;6214471;23;20442;-78
2023/08/30 08:50:38;;;;;;;9.23;7.75;;;;;;;17.90;70.11;96060.72;6215243;23;20025;-78
2023/08/30 08:53:07;;;;;;;8.40;6.80;;;;;;;17.88;70.88;96067.28;6214548;23;20524;-78
2023/08/30 08:55:36;;;;;;;6.45;5.35;;;;;;;17.86;70.13;96079.91;6214465;23;20048;-76
2023/08/30 08:58:05;;;;;;;5.90;5.40;;;;;;;17.87;71.81;96077.03;6215034;23;20026;-80
2023/08/30 09:00:32;;;;;;;5.82;5.32;;;;;;;17.88;70.10;96072.53;6215228;23;20086;-77
2023/08/30 09:03:01;;;;;;;7.20;5.43;;;;;;;17.83;69.20;96062.72;6214213;23;20020;-80
2023/08/30 09:05:30;;;;;;;6.50;5.88;;;;;;;17.84;70.70;96074.06;6214992;23;20027;-78
2023/08/30 09:07:59;;;;;;;8.80;7.43;;;;;;;17.86;72.57;96075.44;6214865;23;20029;-80
2023/08/30 09:10:27;;;;;;;7.82;5.53;;;;;;;17.90;71.63;96073.91;6214291;23;20052;-78
2023/08/30 09:12:54;;;;;;;8.68;5.90;;;;;;;17.92;70.14;96063.91;6214394;23;20035;-79
2023/08/30 09:15:22;;;;;;;6.10;5.50;;;;;;;17.93;70.21;96064.72;6216581;23;20023;-77
2023/08/30 09:17:50;;;;;;;6.82;6.15;;;;;;;17.95;69.62;96067.09;6215953;23;20633;-77
2023/08/30 09:20:19;;;;;;;8.75;5.85;;;;;;;17.97;70.41;96052.63;6215958;23;20058;-78
2023/08/30 09:26:02;;;;;;;6.90;6.30;;;;;;;18.07;71.21;96058.06;6242528;22;20028;-81
2023/08/30 09:29:09;;;;;;;7.18;6.50;;;;;;;18.11;71.62;96056.53;6244424;23;20048;-79
2023/08/30 09:32:18;;;;;;;7.00;6.30;;;;;;;18.15;69.72;96056.03;6217090;23;20024;-80
2023/08/30 09:35:11;;;;;;;6.70;6.15;;;;;;;18.16;70.62;96058.44;6212550;23;20068;-79
2023/08/30 09:55:44;;;;;;;15.40;9.75;;;;;;;18.32;68.41;96051.53;6240109;22;20024;-79
2023/08/30 10:25:07;;;;;;;4.72;4.32;;;;;;;19.57;65.55;96024.34;6254910;22;20027;-79
2023/08/30 10:31:18;;;;;;;4.45;4.05;;;;;;;19.61;62.24;96030.69;6268588;22;20051;-79
2023/08/30 10:33:59;;;;;;;4.20;3.90;;;;;;;19.60;63.63;96028.31;6250817;23;20016;-79
2023/08/30 10:39:23;;;;;;;5.35;4.38;;;;;;;19.73;64.84;96017.34;6271186;22;20008;-81
2023/08/30 10:41:59;;;;;;;4.32;3.80;;;;;;;19.75;63.48;96026.63;6274679;22;20008;-80
2023/08/30 10:44:27;;;;;;;5.97;4.18;;;;;;;19.81;62.53;96021.34;6272797;22;20050;-81
2023/08/30 10:46:56;;;;;;;4.22;3.38;;;;;;;19.79;61.42;96015.50;6274332;22;20008;-80
2023/08/30 10:52:01;;;;;;;3.65;3.35;;;;;;;19.85;64.73;96019.78;6267472;22;20042;-80
2023/08/30 10:54:38;;;;;;;8.73;6.57;;;;;;;19.94;62.04;96008.50;6239442;23;20025;-79
2023/08/30 10:57:14;;;;;;;4.88;3.90;;;;;;;20.01;60.92;96018.84;6241165;23;20025;-82
2023/08/30 11:00:05;;;;;;;3.63;3.00;;;;;;;20.07;61.28;96015.19;6241276;23;20020;-82
2023/08/30 11:02:33;;;;;;;3.33;3.03;;;;;;;20.16;59.29;96020.78;6237170;23;20035;-82
2023/08/30 11:05:03;;;;;;;3.50;2.83;;;;;;;20.18;59.16;96018.66;6240436;22;20012;-82
2023/08/30 11:07:32;;;;;;;3.75;3.38;;;;;;;20.26;60.40;96012.88;6242430;23;20017;-82
2023/08/30 11:10:00;;;;;;;6.00;3.38;;;;;;;20.30;59.42;96021.13;6240258;23;20013;-82
2023/08/30 11:12:31;;;;;;;4.55;3.45;;;;;;;20.35;58.60;96015.84;6241540;22;20008;-81
2023/08/30 11:14:58;;;;;;;2.88;2.40;;;;;;;20.33;58.07;96004.69;6240280;23;20020;-81
2023/08/30 11:17:28;;;;;;;2.20;1.90;;;;;;;20.32;58.05;96009.22;6238941;23;20047;-82
2023/08/30 11:20:06;;;;;;;3.75;2.85;;;;;;;20.30;59.52;96006.03;6239749;23;20020;-82
2023/08/30 11:22:34;;;;;;;5.47;3.80;;;;;;;20.30;59.09;96005.22;6238762;23;20024;-81
2023/08/30 11:25:03;;;;;;;3.40;2.90;;;;;;;20.28;58.87;96007.34;6240394;23;20020;-81
2023/08/30 11:27:33;;;;;;;3.63;2.95;;;;;;;20.25;56.80;96003.34;6241641;22;20012;-81
2023/08/30 11:30:02;;;;;;;6.05;3.97;;;;;;;20.25;58.83;96002.56;6240349;23;20008;-82
2023/08/30 11:32:33;;;;;;;4.03;3.30;;;;;;;20.30;59.35;96007.88;6240354;23;20016;-80
2023/08/30 11:35:02;;;;;;;4.88;3.97;;;;;;;20.32;58.88;95997.81;6241964;23;20071;-82
2023/08/30 11:37:31;;;;;;;4.28;2.63;;;;;;;20.35;58.19;96000.72;6240674;23;20021;-82
2023/08/30 11:40:00;;;;;;;3.70;2.83;;;;;;;20.37;57.88;96001.28;6241354;23;20025;-82
2023/08/30 11:42:29;;;;;;;5.30;4.10;;;;;;;20.44;57.75;96002.91;6240918;23;20024;-82
2023/08/30 11:45:10;;;;;;;6.20;4.55;;;;;;;20.48;56.60;96003.97;6240853;22;20020;-82
2023/08/30 11:47:44;;;;;;;7.47;4.38;;;;;;;20.50;57.37;95996.56;6241153;23;20060;-82
2023/08/30 11:50:15;;;;;;;7.82;4.95;;;;;;;20.53;57.10;95994.19;6241299;23;20035;-82
2023/08/30 11:52:45;;;;;;;4.88;3.53;;;;;;;20.60;56.79;95998.47;6240119;23;20024;-82
2023/08/30 11:55:15;;;;;;;3.78;2.63;;;;;;;20.68;55.79;95990.81;6241750;23;20025;-81
2023/08/30 11:57:45;;;;;;;2.28;1.88;;;;;;;20.77;55.61;95989.28;6242434;23;20020;-82
2023/08/30 12:00:22;;;;;;;2.90;2.40;;;;;;;20.87;54.82;95991.13;6242504;23;20031;-82
2023/08/30 12:02:52;;;;;;;3.80;2.92;;;;;;;20.89;54.80;95986.38;6240171;23;20021;-81
2023/08/30 12:05:21;;;;;;;7.13;3.35;;;;;;;20.93;54.83;95986.66;6241074;23;20017;-82
2023/08/30 12:07:49;;;;;;;2.90;2.30;;;;;;;20.96;54.36;95986.13;6242178;23;20025;-82
2023/08/30 12:10:20;;;;;;;3.78;2.88;;;;;;;20.92;55.29;95985.84;6240864;23;20081;-82
2023/08/30 12:12:48;;;;;;;2.45;2.25;;;;;;;20.92;53.48;95977.88;6237912;23;20025;-82
2023/08/30 12:15:18;;;;;;;2.08;1.90;;;;;;;20.97;53.02;95988.50;6236655;23;20075;-82
2023/08/30 12:17:46;;;;;;;2.40;1.50;;;;;;;21.04;53.62;95976.88;6240748;22;20027;-82
2023/08/30 12:20:20;;;;;;;2.45;1.70;;;;;;;21.10;51.40;95981.09;6240592;22;20021;-81
2023/08/30 12:22:50;;;;;;;1.60;1.50;;;;;;;21.13;53.60;95976.06;6239637;23;20047;-82
2023/08/30 12:25:23;;;;;;;2.00;1.70;;;;;;;21.15;52.87;95981.13;6239068;23;20082;-82
2023/08/30 12:27:52;;;;;;;2.60;1.40;;;;;;;21.19;53.01;95976.88;6239050;23;20044;-81
2023/08/30 12:30:22;;;;;;;2.25;1.75;;;;;;;21.19;53.35;95974.22;6239309;23;20090;-82